sensor_id;sensor_type;location;lat;lon;timestamp;P1;durP1;ratioP1;P2;durP2;ratioP2
1799;SDS011;919;48.274;12.292;2023-02-28T00:01:06;4.23;;;2.70;;
1799;SDS011;919;48.274;12.292;2023-02-28T00:03:33;3.53;;;2.60;;
1799;SDS011;919;48.274;12.292;2023-02-28T00:06:00;2.93;;;2.27;;
1799;SDS011;919;48.274;12.292;2023-02-28T00:08:27;2.40;;;2.20;;
1799;SDS011;919;48.274;12.292;2023-02-28T00:10:54;4.37;;;2.93;;
1799;SDS011;919;48.274;12.292;2023-02-28T00:13:21;3.47;;;2.60;;
1799;SDS011;919;48.274;12.292;2023-02-28T00:15:47;7.07;;;2.60;;
1799;SDS011;919;48.274;12.292;2023-02-28T00:18:26;2.80;;;2.50;;
1799;SDS011;919;48.274;12.292;2023-02-28T00:20:53;2.47;;;2.27;;
1799;SDS011;919;48.274;12.292;2023-02-28T00:23:19;5.43;;;2.67;;
1799;SDS011;919;48.274;12.292;2023-02-28T00:25:46;4.60;;;2.90;;
1799;SDS011;919;48.274;12.292;2023-02-28T00:28:13;3.93;;;2.33;;
1799;SDS011;919;48.274;12.292;2023-02-28T00:30:39;3.20;;;2.60;;
1799;SDS011;919;48.274;12.292;2023-02-28T00:33:06;2.47;;;2.27;;
1799;SDS011;919;48.274;12.292;2023-02-28T00:35:34;3.60;;;2.20;;
1799;SDS011;919;48.274;12.292;2023-02-28T00:38:01;5.30;;;2.60;;
1799;SDS011;919;48.274;12.292;2023-02-28T00:40:28;3.60;;;2.77;;
1799;SDS011;919;48.274;12.292;2023-02-28T00:42:54;3.10;;;2.60;;
1799;SDS011;919;48.274;12.292;2023-02-28T00:45:21;3.20;;;2.30;;
1799;SDS011;919;48.274;12.292;2023-02-28T00:47:48;2.97;;;2.57;;
1799;SDS011;919;48.274;12.292;2023-02-28T00:50:15;4.37;;;3.33;;
1799;SDS011;919;48.274;12.292;2023-02-28T00:52:43;2.90;;;2.70;;
1799;SDS011;919;48.274;12.292;2023-02-28T00:55:10;7.20;;;3.20;;
1799;SDS011;919;48.274;12.292;2023-02-28T00:57:37;10.03;;;3.27;;
1799;SDS011;919;48.274;12.292;2023-02-28T01:00:04;2.60;;;2.40;;
1799;SDS011;919;48.274;12.292;2023-02-28T01:02:33;4.50;;;2.83;;
1799;SDS011;919;48.274;12.292;2023-02-28T01:04:59;7.10;;;3.47;;
1799;SDS011;919;48.274;12.292;2023-02-28T01:07:26;6.80;;;3.47;;
1799;SDS011;919;48.274;12.292;2023-02-28T01:09:54;5.83;;;3.20;;
1799;SDS011;919;48.274;12.292;2023-02-28T01:12:21;6.57;;;3.33;;
1799;SDS011;919;48.274;12.292;2023-02-28T01:14:48;7.17;;;3.67;;
1799;SDS011;919;48.274;12.292;2023-02-28T01:17:14;2.53;;;2.30;;
1799;SDS011;919;48.274;12.292;2023-02-28T01:19:41;5.57;;;3.27;;
1799;SDS011;919;48.274;12.292;2023-02-28T01:22:08;5.20;;;3.00;;
1799;SDS011;919;48.274;12.292;2023-02-28T01:24:35;5.27;;;2.90;;
1799;SDS011;919;48.274;12.292;2023-02-28T01:27:03;3.40;;;3.10;;
1799;SDS011;919;48.274;12.292;2023-02-28T01:29:29;2.87;;;2.43;;
1799;SDS011;919;48.274;12.292;2023-02-28T01:31:56;6.20;;;3.50;;
1799;SDS011;919;48.274;12.292;2023-02-28T01:34:24;3.67;;;3.30;;
1799;SDS011;919;48.274;12.292;2023-02-28T01:36:51;5.43;;;3.60;;
1799;SDS011;919;48.274;12.292;2023-02-28T01:39:17;7.60;;;3.50;;
1799;SDS011;919;48.274;12.292;2023-02-28T01:41:44;7.30;;;3.57;;
1799;SDS011;919;48.274;12.292;2023-02-28T01:47:16;4.63;;;3.37;;
1799;SDS011;919;48.274;12.292;2023-02-28T01:49:43;3.93;;;3.10;;
1799;SDS011;919;48.274;12.292;2023-02-28T01:52:10;10.17;;;4.27;;
1799;SDS011;919;48.274;12.292;2023-02-28T01:54:39;6.10;;;4.13;;
1799;SDS011;919;48.274;12.292;2023-02-28T01:57:08;6.30;;;3.87;;
1799;SDS011;919;48.274;12.292;2023-02-28T01:59:38;6.63;;;4.37;;
1799;SDS011;919;48.274;12.292;2023-02-28T02:02:11;6.07;;;3.90;;
1799;SDS011;919;48.274;12.292;2023-02-28T02:04:40;5.63;;;4.40;;
1799;SDS011;919;48.274;12.292;2023-02-28T02:07:12;5.53;;;4.40;;
1799;SDS011;919;48.274;12.292;2023-02-28T02:09:40;8.07;;;3.63;;
1799;SDS011;919;48.274;12.292;2023-02-28T02:12:09;6.03;;;3.87;;
1799;SDS011;919;48.274;12.292;2023-02-28T02:14:48;3.90;;;3.50;;
1799;SDS011;919;48.274;12.292;2023-02-28T02:17:27;7.23;;;4.70;;
1799;SDS011;919;48.274;12.292;2023-02-28T02:26:25;4.60;;;3.60;;
1799;SDS011;919;48.274;12.292;2023-02-28T02:29:23;9.13;;;4.70;;
1799;SDS011;919;48.274;12.292;2023-02-28T02:32:11;5.77;;;3.93;;
1799;SDS011;919;48.274;12.292;2023-02-28T02:35:01;11.07;;;5.40;;
1799;SDS011;919;48.274;12.292;2023-02-28T02:37:39;8.60;;;4.40;;
1799;SDS011;919;48.274;12.292;2023-02-28T02:40:12;4.50;;;3.47;;
1799;SDS011;919;48.274;12.292;2023-02-28T02:42:44;7.37;;;4.27;;
1799;SDS011;919;48.274;12.292;2023-02-28T02:45:17;7.40;;;4.63;;
1799;SDS011;919;48.274;12.292;2023-02-28T02:47:48;6.57;;;3.97;;
1799;SDS011;919;48.274;12.292;2023-02-28T02:50:19;7.63;;;4.60;;
1799;SDS011;919;48.274;12.292;2023-02-28T02:52:51;5.90;;;3.73;;
1799;SDS011;919;48.274;12.292;2023-02-28T02:55:21;6.30;;;4.47;;
1799;SDS011;919;48.274;12.292;2023-02-28T02:57:49;6.60;;;4.87;;
1799;SDS011;919;48.274;12.292;2023-02-28T03:00:20;5.57;;;4.10;;
1799;SDS011;919;48.274;12.292;2023-02-28T03:02:51;9.73;;;4.63;;
1799;SDS011;919;48.274;12.292;2023-02-28T03:05:23;8.50;;;5.00;;
1799;SDS011;919;48.274;12.292;2023-02-28T03:07:52;7.00;;;4.77;;
1799;SDS011;919;48.274;12.292;2023-02-28T03:10:26;9.00;;;4.63;;
1799;SDS011;919;48.274;12.292;2023-02-28T03:12:58;5.27;;;4.77;;
1799;SDS011;919;48.274;12.292;2023-02-28T03:15:34;7.30;;;4.40;;
1799;SDS011;919;48.274;12.292;2023-02-28T03:18:13;7.63;;;5.13;;
1799;SDS011;919;48.274;12.292;2023-02-28T03:23:34;6.60;;;5.40;;
1799;SDS011;919;48.274;12.292;2023-02-28T03:26:11;12.70;;;5.03;;
1799;SDS011;919;48.274;12.292;2023-02-28T03:28:45;5.90;;;4.77;;
1799;SDS011;919;48.274;12.292;2023-02-28T03:31:20;5.23;;;4.43;;
1799;SDS011;919;48.274;12.292;2023-02-28T03:33:54;9.13;;;5.70;;
1799;SDS011;919;48.274;12.292;2023-02-28T03:36:28;6.73;;;4.70;;
1799;SDS011;919;48.274;12.292;2023-02-28T03:38:59;9.43;;;5.80;;
1799;SDS011;919;48.274;12.292;2023-02-28T03:41:30;10.30;;;5.90;;
1799;SDS011;919;48.274;12.292;2023-02-28T03:44:02;6.10;;;4.70;;
1799;SDS011;919;48.274;12.292;2023-02-28T03:46:34;8.60;;;6.30;;
1799;SDS011;919;48.274;12.292;2023-02-28T03:49:06;7.87;;;6.30;;
1799;SDS011;919;48.274;12.292;2023-02-28T03:51:40;10.50;;;6.30;;
1799;SDS011;919;48.274;12.292;2023-02-28T03:54:11;10.80;;;6.27;;
1799;SDS011;919;48.274;12.292;2023-02-28T03:56:42;7.53;;;5.97;;
1799;SDS011;919;48.274;12.292;2023-02-28T03:59:13;9.40;;;6.40;;
1799;SDS011;919;48.274;12.292;2023-02-28T04:01:45;8.87;;;5.93;;
1799;SDS011;919;48.274;12.292;2023-02-28T04:04:14;7.53;;;5.37;;
1799;SDS011;919;48.274;12.292;2023-02-28T04:06:41;9.70;;;5.67;;
1799;SDS011;919;48.274;12.292;2023-02-28T04:09:11;8.40;;;6.23;;
1799;SDS011;919;48.274;12.292;2023-02-28T04:11:40;10.83;;;6.73;;
1799;SDS011;919;48.274;12.292;2023-02-28T04:14:09;12.30;;;6.67;;
1799;SDS011;919;48.274;12.292;2023-02-28T04:16:37;8.77;;;5.47;;
1799;SDS011;919;48.274;12.292;2023-02-28T04:19:06;9.47;;;5.67;;
1799;SDS011;919;48.274;12.292;2023-02-28T04:21:34;8.30;;;5.80;;
1799;SDS011;919;48.274;12.292;2023-02-28T04:24:02;8.83;;;5.93;;
1799;SDS011;919;48.274;12.292;2023-02-28T04:26:31;14.87;;;6.87;;
1799;SDS011;919;48.274;12.292;2023-02-28T04:28:59;9.13;;;6.20;;
1799;SDS011;919;48.274;12.292;2023-02-28T04:31:28;11.70;;;6.70;;
1799;SDS011;919;48.274;12.292;2023-02-28T04:33:55;9.90;;;6.07;;
1799;SDS011;919;48.274;12.292;2023-02-28T04:36:22;15.40;;;6.73;;
1799;SDS011;919;48.274;12.292;2023-02-28T04:38:49;7.67;;;5.13;;
1799;SDS011;919;48.274;12.292;2023-02-28T04:41:16;7.73;;;5.50;;
1799;SDS011;919;48.274;12.292;2023-02-28T04:43:44;7.83;;;6.00;;
1799;SDS011;919;48.274;12.292;2023-02-28T04:46:11;9.00;;;5.77;;
1799;SDS011;919;48.274;12.292;2023-02-28T04:48:38;10.03;;;6.37;;
1799;SDS011;919;48.274;12.292;2023-02-28T04:51:07;11.43;;;5.97;;
1799;SDS011;919;48.274;12.292;2023-02-28T04:53:35;9.93;;;5.73;;
1799;SDS011;919;48.274;12.292;2023-02-28T04:56:03;6.83;;;5.10;;
1799;SDS011;919;48.274;12.292;2023-02-28T04:58:31;10.30;;;5.97;;
1799;SDS011;919;48.274;12.292;2023-02-28T05:01:03;8.47;;;5.77;;
1799;SDS011;919;48.274;12.292;2023-02-28T05:03:37;9.40;;;6.00;;
1799;SDS011;919;48.274;12.292;2023-02-28T05:06:05;8.83;;;5.87;;
1799;SDS011;919;48.274;12.292;2023-02-28T05:08:32;8.77;;;6.10;;
1799;SDS011;919;48.274;12.292;2023-02-28T05:10:59;10.23;;;6.47;;
1799;SDS011;919;48.274;12.292;2023-02-28T05:13:26;10.03;;;6.27;;
1799;SDS011;919;48.274;12.292;2023-02-28T05:15:53;11.20;;;6.40;;
1799;SDS011;919;48.274;12.292;2023-02-28T05:18:21;11.73;;;6.53;;
1799;SDS011;919;48.274;12.292;2023-02-28T05:20:48;8.10;;;6.63;;
1799;SDS011;919;48.274;12.292;2023-02-28T05:23:15;9.27;;;5.80;;
1799;SDS011;919;48.274;12.292;2023-02-28T05:25:43;12.77;;;6.23;;
1799;SDS011;919;48.274;12.292;2023-02-28T05:28:10;11.67;;;6.40;;
1799;SDS011;919;48.274;12.292;2023-02-28T05:30:36;11.43;;;6.73;;
1799;SDS011;919;48.274;12.292;2023-02-28T05:33:03;8.80;;;5.90;;
1799;SDS011;919;48.274;12.292;2023-02-28T05:35:31;7.70;;;5.77;;
1799;SDS011;919;48.274;12.292;2023-02-28T05:37:58;9.50;;;6.00;;
1799;SDS011;919;48.274;12.292;2023-02-28T05:40:25;8.03;;;5.53;;
1799;SDS011;919;48.274;12.292;2023-02-28T05:42:51;6.57;;;5.43;;
1799;SDS011;919;48.274;12.292;2023-02-28T05:45:18;6.77;;;6.17;;
1799;SDS011;919;48.274;12.292;2023-02-28T05:47:44;9.70;;;5.53;;
1799;SDS011;919;48.274;12.292;2023-02-28T05:50:11;6.37;;;4.87;;
1799;SDS011;919;48.274;12.292;2023-02-28T05:52:39;9.93;;;6.53;;
1799;SDS011;919;48.274;12.292;2023-02-28T05:55:06;11.73;;;6.30;;
1799;SDS011;919;48.274;12.292;2023-02-28T05:57:33;10.67;;;6.53;;
1799;SDS011;919;48.274;12.292;2023-02-28T06:00:00;11.03;;;6.77;;
1799;SDS011;919;48.274;12.292;2023-02-28T06:02:28;7.27;;;5.37;;
1799;SDS011;919;48.274;12.292;2023-02-28T06:04:54;12.53;;;5.80;;
1799;SDS011;919;48.274;12.292;2023-02-28T06:07:21;7.53;;;6.03;;
1799;SDS011;919;48.274;12.292;2023-02-28T06:09:49;9.07;;;5.53;;
1799;SDS011;919;48.274;12.292;2023-02-28T06:12:16;6.93;;;5.47;;
1799;SDS011;919;48.274;12.292;2023-02-28T06:14:43;12.70;;;6.30;;
1799;SDS011;919;48.274;12.292;2023-02-28T06:17:09;10.17;;;6.03;;
1799;SDS011;919;48.274;12.292;2023-02-28T06:19:36;6.33;;;5.17;;
1799;SDS011;919;48.274;12.292;2023-02-28T06:22:04;9.80;;;6.30;;
1799;SDS011;919;48.274;12.292;2023-02-28T06:24:31;7.67;;;5.53;;
1799;SDS011;919;48.274;12.292;2023-02-28T06:26:59;10.80;;;5.87;;
1799;SDS011;919;48.274;12.292;2023-02-28T06:29:30;7.27;;;4.80;;
1799;SDS011;919;48.274;12.292;2023-02-28T06:31:56;10.70;;;5.97;;
1799;SDS011;919;48.274;12.292;2023-02-28T06:34:23;10.57;;;6.30;;
1799;SDS011;919;48.274;12.292;2023-02-28T06:36:50;8.60;;;5.70;;
1799;SDS011;919;48.274;12.292;2023-02-28T06:39:18;13.67;;;5.60;;
1799;SDS011;919;48.274;12.292;2023-02-28T06:41:44;8.10;;;5.50;;
1799;SDS011;919;48.274;12.292;2023-02-28T06:44:14;11.33;;;5.57;;
1799;SDS011;919;48.274;12.292;2023-02-28T06:46:43;7.60;;;5.40;;
1799;SDS011;919;48.274;12.292;2023-02-28T06:49:11;7.60;;;4.77;;
1799;SDS011;919;48.274;12.292;2023-02-28T06:51:41;10.63;;;6.00;;
1799;SDS011;919;48.274;12.292;2023-02-28T06:54:10;13.50;;;6.33;;
1799;SDS011;919;48.274;12.292;2023-02-28T06:56:37;10.47;;;5.60;;
1799;SDS011;919;48.274;12.292;2023-02-28T06:59:04;9.17;;;6.13;;
1799;SDS011;919;48.274;12.292;2023-02-28T07:01:32;7.33;;;5.60;;
1799;SDS011;919;48.274;12.292;2023-02-28T07:03:59;6.73;;;5.07;;
1799;SDS011;919;48.274;12.292;2023-02-28T07:06:26;7.90;;;6.00;;
1799;SDS011;919;48.274;12.292;2023-02-28T07:08:54;7.80;;;5.53;;
1799;SDS011;919;48.274;12.292;2023-02-28T07:11:20;8.50;;;5.70;;
1799;SDS011;919;48.274;12.292;2023-02-28T07:13:50;10.17;;;5.63;;
1799;SDS011;919;48.274;12.292;2023-02-28T07:16:17;14.93;;;6.13;;
1799;SDS011;919;48.274;12.292;2023-02-28T07:18:45;8.27;;;5.07;;
1799;SDS011;919;48.274;12.292;2023-02-28T07:21:12;11.97;;;6.43;;
1799;SDS011;919;48.274;12.292;2023-02-28T07:23:39;9.40;;;6.03;;
1799;SDS011;919;48.274;12.292;2023-02-28T07:26:07;10.80;;;5.73;;
1799;SDS011;919;48.274;12.292;2023-02-28T07:28:37;11.23;;;6.67;;
1799;SDS011;919;48.274;12.292;2023-02-28T07:31:04;9.57;;;7.20;;
1799;SDS011;919;48.274;12.292;2023-02-28T07:33:32;9.30;;;6.00;;
1799;SDS011;919;48.274;12.292;2023-02-28T07:36:01;8.90;;;6.17;;
1799;SDS011;919;48.274;12.292;2023-02-28T07:38:29;10.00;;;6.10;;
1799;SDS011;919;48.274;12.292;2023-02-28T07:40:55;11.90;;;7.13;;
1799;SDS011;919;48.274;12.292;2023-02-28T07:43:22;11.60;;;7.00;;
1799;SDS011;919;48.274;12.292;2023-02-28T07:45:49;7.80;;;5.90;;
1799;SDS011;919;48.274;12.292;2023-02-28T07:48:16;8.67;;;6.00;;
1799;SDS011;919;48.274;12.292;2023-02-28T07:50:42;15.20;;;6.93;;
1799;SDS011;919;48.274;12.292;2023-02-28T07:53:10;9.37;;;6.07;;
1799;SDS011;919;48.274;12.292;2023-02-28T07:55:37;10.20;;;6.03;;
1799;SDS011;919;48.274;12.292;2023-02-28T07:58:04;8.80;;;6.10;;
1799;SDS011;919;48.274;12.292;2023-02-28T08:00:30;12.27;;;7.40;;
1799;SDS011;919;48.274;12.292;2023-02-28T08:02:57;7.37;;;5.00;;
1799;SDS011;919;48.274;12.292;2023-02-28T08:05:24;10.47;;;6.00;;
1799;SDS011;919;48.274;12.292;2023-02-28T08:07:51;13.03;;;6.80;;
1799;SDS011;919;48.274;12.292;2023-02-28T08:10:19;11.23;;;6.40;;
1799;SDS011;919;48.274;12.292;2023-02-28T08:12:46;11.07;;;6.40;;
1799;SDS011;919;48.274;12.292;2023-02-28T08:15:13;7.97;;;6.37;;
1799;SDS011;919;48.274;12.292;2023-02-28T08:17:39;10.13;;;5.80;;
1799;SDS011;919;48.274;12.292;2023-02-28T08:20:07;9.20;;;6.40;;
1799;SDS011;919;48.274;12.292;2023-02-28T08:22:36;9.50;;;6.50;;
1799;SDS011;919;48.274;12.292;2023-02-28T08:25:03;11.90;;;6.73;;
1799;SDS011;919;48.274;12.292;2023-02-28T08:27:33;8.73;;;6.10;;
1799;SDS011;919;48.274;12.292;2023-02-28T08:30:00;9.03;;;6.17;;
1799;SDS011;919;48.274;12.292;2023-02-28T08:32:26;10.10;;;5.97;;
1799;SDS011;919;48.274;12.292;2023-02-28T08:34:53;11.53;;;6.27;;
1799;SDS011;919;48.274;12.292;2023-02-28T08:37:20;10.27;;;6.07;;
1799;SDS011;919;48.274;12.292;2023-02-28T08:39:46;13.40;;;6.33;;
1799;SDS011;919;48.274;12.292;2023-02-28T08:42:13;9.53;;;5.90;;
1799;SDS011;919;48.274;12.292;2023-02-28T08:44:42;11.30;;;5.60;;
1799;SDS011;919;48.274;12.292;2023-02-28T08:47:08;22.97;;;7.13;;
1799;SDS011;919;48.274;12.292;2023-02-28T08:49:36;10.40;;;6.63;;
1799;SDS011;919;48.274;12.292;2023-02-28T08:52:03;11.60;;;5.93;;
1799;SDS011;919;48.274;12.292;2023-02-28T08:54:29;9.60;;;6.87;;
1799;SDS011;919;48.274;12.292;2023-02-28T08:56:58;8.50;;;5.57;;
1799;SDS011;919;48.274;12.292;2023-02-28T08:59:25;13.10;;;7.50;;
1799;SDS011;919;48.274;12.292;2023-02-28T09:01:53;10.63;;;6.40;;
1799;SDS011;919;48.274;12.292;2023-02-28T09:04:19;11.40;;;6.53;;
1799;SDS011;919;48.274;12.292;2023-02-28T09:06:47;13.10;;;6.67;;
1799;SDS011;919;48.274;12.292;2023-02-28T09:09:14;11.20;;;7.27;;
1799;SDS011;919;48.274;12.292;2023-02-28T09:11:41;7.40;;;5.37;;
1799;SDS011;919;48.274;12.292;2023-02-28T09:14:07;12.57;;;6.87;;
1799;SDS011;919;48.274;12.292;2023-02-28T09:16:34;8.70;;;5.87;;
1799;SDS011;919;48.274;12.292;2023-02-28T09:19:02;12.23;;;7.93;;
1799;SDS011;919;48.274;12.292;2023-02-28T09:21:29;9.03;;;6.27;;
1799;SDS011;919;48.274;12.292;2023-02-28T09:23:56;10.70;;;6.50;;
1799;SDS011;919;48.274;12.292;2023-02-28T09:26:23;12.60;;;7.23;;
1799;SDS011;919;48.274;12.292;2023-02-28T09:28:51;7.77;;;5.60;;
1799;SDS011;919;48.274;12.292;2023-02-28T09:31:20;8.10;;;6.07;;
1799;SDS011;919;48.274;12.292;2023-02-28T09:33:48;8.33;;;5.90;;
1799;SDS011;919;48.274;12.292;2023-02-28T09:36:18;9.67;;;5.87;;
1799;SDS011;919;48.274;12.292;2023-02-28T09:38:45;14.53;;;6.80;;
1799;SDS011;919;48.274;12.292;2023-02-28T09:41:13;10.03;;;6.80;;
1799;SDS011;919;48.274;12.292;2023-02-28T09:43:43;9.90;;;6.57;;
1799;SDS011;919;48.274;12.292;2023-02-28T09:46:26;7.73;;;5.80;;
1799;SDS011;919;48.274;12.292;2023-02-28T09:48:57;10.43;;;6.83;;
1799;SDS011;919;48.274;12.292;2023-02-28T09:51:30;9.13;;;6.90;;
1799;SDS011;919;48.274;12.292;2023-02-28T09:54:09;10.17;;;6.90;;
1799;SDS011;919;48.274;12.292;2023-02-28T09:56:44;11.03;;;6.90;;
1799;SDS011;919;48.274;12.292;2023-02-28T09:59:17;9.73;;;6.80;;
1799;SDS011;919;48.274;12.292;2023-02-28T10:02:01;8.87;;;7.10;;
1799;SDS011;919;48.274;12.292;2023-02-28T10:04:41;10.67;;;5.80;;
1799;SDS011;919;48.274;12.292;2023-02-28T10:07:19;10.60;;;6.80;;
1799;SDS011;919;48.274;12.292;2023-02-28T10:09:56;13.53;;;7.83;;
1799;SDS011;919;48.274;12.292;2023-02-28T10:12:26;8.40;;;6.60;;
1799;SDS011;919;48.274;12.292;2023-02-28T10:14:55;8.63;;;7.03;;
1799;SDS011;919;48.274;12.292;2023-02-28T10:17:28;9.30;;;6.93;;
1799;SDS011;919;48.274;12.292;2023-02-28T10:20:02;7.00;;;6.30;;
1799;SDS011;919;48.274;12.292;2023-02-28T10:22:40;10.33;;;7.27;;
1799;SDS011;919;48.274;12.292;2023-02-28T10:25:18;7.37;;;5.73;;
1799;SDS011;919;48.274;12.292;2023-02-28T10:27:48;11.80;;;6.83;;
1799;SDS011;919;48.274;12.292;2023-02-28T10:30:25;11.77;;;6.47;;
1799;SDS011;919;48.274;12.292;2023-02-28T10:32:52;11.27;;;6.90;;
1799;SDS011;919;48.274;12.292;2023-02-28T10:35:20;10.90;;;6.93;;
1799;SDS011;919;48.274;12.292;2023-02-28T10:37:50;13.20;;;6.90;;
1799;SDS011;919;48.274;12.292;2023-02-28T10:40:28;10.17;;;6.73;;
1799;SDS011;919;48.274;12.292;2023-02-28T10:42:58;11.97;;;6.97;;
1799;SDS011;919;48.274;12.292;2023-02-28T10:45:26;9.40;;;6.97;;
1799;SDS011;919;48.274;12.292;2023-02-28T10:47:57;12.60;;;6.90;;
1799;SDS011;919;48.274;12.292;2023-02-28T10:50:29;8.77;;;6.90;;
1799;SDS011;919;48.274;12.292;2023-02-28T10:53:24;8.53;;;7.23;;
1799;SDS011;919;48.274;12.292;2023-02-28T10:55:57;8.77;;;7.03;;
1799;SDS011;919;48.274;12.292;2023-02-28T10:58:27;10.50;;;6.87;;
1799;SDS011;919;48.274;12.292;2023-02-28T11:00:55;11.10;;;7.67;;
1799;SDS011;919;48.274;12.292;2023-02-28T11:03:24;8.63;;;6.47;;
1799;SDS011;919;48.274;12.292;2023-02-28T11:05:55;9.10;;;6.87;;
1799;SDS011;919;48.274;12.292;2023-02-28T11:08:24;9.30;;;6.10;;
1799;SDS011;919;48.274;12.292;2023-02-28T11:10:53;11.37;;;7.93;;
1799;SDS011;919;48.274;12.292;2023-02-28T11:13:24;10.47;;;7.57;;
1799;SDS011;919;48.274;12.292;2023-02-28T11:15:55;10.67;;;7.40;;
1799;SDS011;919;48.274;12.292;2023-02-28T11:18:24;11.03;;;6.43;;
1799;SDS011;919;48.274;12.292;2023-02-28T11:20:55;9.57;;;6.63;;
1799;SDS011;919;48.274;12.292;2023-02-28T11:23:26;9.53;;;7.10;;
1799;SDS011;919;48.274;12.292;2023-02-28T11:25:56;10.40;;;6.90;;
1799;SDS011;919;48.274;12.292;2023-02-28T11:28:26;9.07;;;7.20;;
1799;SDS011;919;48.274;12.292;2023-02-28T11:31:00;10.33;;;6.67;;
1799;SDS011;919;48.274;12.292;2023-02-28T11:33:29;7.40;;;6.40;;
1799;SDS011;919;48.274;12.292;2023-02-28T11:35:59;9.20;;;6.83;;
1799;SDS011;919;48.274;12.292;2023-02-28T11:38:30;11.93;;;7.13;;
1799;SDS011;919;48.274;12.292;2023-02-28T11:41:14;14.00;;;7.13;;
1799;SDS011;919;48.274;12.292;2023-02-28T11:43:55;8.00;;;6.97;;
1799;SDS011;919;48.274;12.292;2023-02-28T11:46:33;11.20;;;7.40;;
1799;SDS011;919;48.274;12.292;2023-02-28T11:49:07;10.90;;;7.60;;
1799;SDS011;919;48.274;12.292;2023-02-28T11:51:49;8.57;;;6.67;;
1799;SDS011;919;48.274;12.292;2023-02-28T11:54:27;8.60;;;6.53;;
1799;SDS011;919;48.274;12.292;2023-02-28T11:57:08;12.50;;;7.00;;
1799;SDS011;919;48.274;12.292;2023-02-28T11:59:51;9.77;;;7.20;;
1799;SDS011;919;48.274;12.292;2023-02-28T12:02:26;10.40;;;7.67;;
1799;SDS011;919;48.274;12.292;2023-02-28T12:05:10;9.77;;;7.00;;
1799;SDS011;919;48.274;12.292;2023-02-28T12:07:50;10.07;;;7.17;;
1799;SDS011;919;48.274;12.292;2023-02-28T12:10:29;9.17;;;6.73;;
1799;SDS011;919;48.274;12.292;2023-02-28T12:13:04;9.20;;;6.70;;
1799;SDS011;919;48.274;12.292;2023-02-28T12:15:45;12.73;;;8.20;;
1799;SDS011;919;48.274;12.292;2023-02-28T12:18:38;15.20;;;7.40;;
1799;SDS011;919;48.274;12.292;2023-02-28T12:21:18;8.90;;;6.60;;
1799;SDS011;919;48.274;12.292;2023-02-28T12:26:54;9.60;;;6.27;;
1799;SDS011;919;48.274;12.292;2023-02-28T12:29:26;8.23;;;6.57;;
1799;SDS011;919;48.274;12.292;2023-02-28T12:31:58;9.17;;;6.97;;
1799;SDS011;919;48.274;12.292;2023-02-28T12:34:31;12.60;;;7.87;;
1799;SDS011;919;48.274;12.292;2023-02-28T12:37:03;13.03;;;7.10;;
1799;SDS011;919;48.274;12.292;2023-02-28T12:39:34;12.90;;;6.93;;
1799;SDS011;919;48.274;12.292;2023-02-28T12:42:07;10.70;;;7.90;;
1799;SDS011;919;48.274;12.292;2023-02-28T12:44:40;11.27;;;7.50;;
1799;SDS011;919;48.274;12.292;2023-02-28T12:47:12;14.30;;;7.00;;
1799;SDS011;919;48.274;12.292;2023-02-28T12:49:42;9.43;;;6.70;;
1799;SDS011;919;48.274;12.292;2023-02-28T12:52:17;11.00;;;8.30;;
1799;SDS011;919;48.274;12.292;2023-02-28T12:54:51;9.40;;;7.10;;
1799;SDS011;919;48.274;12.292;2023-02-28T12:57:25;9.40;;;7.77;;
1799;SDS011;919;48.274;12.292;2023-02-28T12:59:59;6.97;;;6.00;;
1799;SDS011;919;48.274;12.292;2023-02-28T13:11:54;11.27;;;7.43;;
1799;SDS011;919;48.274;12.292;2023-02-28T13:14:25;9.33;;;7.47;;
1799;SDS011;919;48.274;12.292;2023-02-28T13:16:59;12.70;;;7.67;;
1799;SDS011;919;48.274;12.292;2023-02-28T13:19:29;12.70;;;7.40;;
1799;SDS011;919;48.274;12.292;2023-02-28T13:21:58;15.40;;;8.43;;
1799;SDS011;919;48.274;12.292;2023-02-28T13:24:45;9.40;;;7.10;;
1799;SDS011;919;48.274;12.292;2023-02-28T13:30:00;10.47;;;7.50;;
1799;SDS011;919;48.274;12.292;2023-02-28T13:32:29;11.20;;;6.83;;
1799;SDS011;919;48.274;12.292;2023-02-28T13:44:07;14.70;;;8.00;;
1799;SDS011;919;48.274;12.292;2023-02-28T13:47:13;10.87;;;7.30;;
1799;SDS011;919;48.274;12.292;2023-02-28T13:49:46;12.03;;;7.27;;
1799;SDS011;919;48.274;12.292;2023-02-28T13:52:15;11.60;;;7.40;;
1799;SDS011;919;48.274;12.292;2023-02-28T13:54:51;9.37;;;7.60;;
1799;SDS011;919;48.274;12.292;2023-02-28T13:57:48;11.23;;;7.73;;
1799;SDS011;919;48.274;12.292;2023-02-28T14:00:31;7.10;;;6.33;;
1799;SDS011;919;48.274;12.292;2023-02-28T14:03:13;10.70;;;7.50;;
1799;SDS011;919;48.274;12.292;2023-02-28T14:08:45;9.20;;;7.20;;
1799;SDS011;919;48.274;12.292;2023-02-28T14:11:31;13.20;;;8.50;;
1799;SDS011;919;48.274;12.292;2023-02-28T14:14:00;15.03;;;6.93;;
1799;SDS011;919;48.274;12.292;2023-02-28T14:16:34;10.63;;;7.30;;
1799;SDS011;919;48.274;12.292;2023-02-28T14:19:12;13.70;;;8.30;;
1799;SDS011;919;48.274;12.292;2023-02-28T14:21:43;9.30;;;7.50;;
1799;SDS011;919;48.274;12.292;2023-02-28T14:24:22;8.57;;;6.83;;
1799;SDS011;919;48.274;12.292;2023-02-28T14:30:17;11.73;;;8.10;;
1799;SDS011;919;48.274;12.292;2023-02-28T14:33:18;9.07;;;7.50;;
1799;SDS011;919;48.274;12.292;2023-02-28T14:35:59;9.60;;;7.80;;
1799;SDS011;919;48.274;12.292;2023-02-28T14:38:34;10.90;;;7.70;;
1799;SDS011;919;48.274;12.292;2023-02-28T14:41:11;12.83;;;8.47;;
1799;SDS011;919;48.274;12.292;2023-02-28T14:43:50;9.43;;;8.00;;
1799;SDS011;919;48.274;12.292;2023-02-28T14:46:19;10.47;;;7.23;;
1799;SDS011;919;48.274;12.292;2023-02-28T14:48:55;9.27;;;7.40;;
1799;SDS011;919;48.274;12.292;2023-02-28T14:51:28;11.00;;;7.57;;
1799;SDS011;919;48.274;12.292;2023-02-28T14:53:56;10.47;;;8.10;;
1799;SDS011;919;48.274;12.292;2023-02-28T14:56:26;8.47;;;7.03;;
1799;SDS011;919;48.274;12.292;2023-02-28T14:58:56;12.13;;;8.30;;
1799;SDS011;919;48.274;12.292;2023-02-28T15:01:23;11.80;;;8.60;;
1799;SDS011;919;48.274;12.292;2023-02-28T15:03:57;11.80;;;8.13;;
1799;SDS011;919;48.274;12.292;2023-02-28T15:06:27;10.93;;;7.93;;
1799;SDS011;919;48.274;12.292;2023-02-28T15:09:08;10.23;;;7.60;;
1799;SDS011;919;48.274;12.292;2023-02-28T15:11:37;9.47;;;7.47;;
1799;SDS011;919;48.274;12.292;2023-02-28T15:14:05;10.33;;;8.23;;
1799;SDS011;919;48.274;12.292;2023-02-28T15:16:33;14.60;;;7.77;;
1799;SDS011;919;48.274;12.292;2023-02-28T15:19:04;10.83;;;7.90;;
1799;SDS011;919;48.274;12.292;2023-02-28T15:21:34;9.63;;;7.67;;
1799;SDS011;919;48.274;12.292;2023-02-28T15:24:03;14.63;;;8.73;;
1799;SDS011;919;48.274;12.292;2023-02-28T15:26:34;10.30;;;8.40;;
1799;SDS011;919;48.274;12.292;2023-02-28T15:29:05;10.60;;;8.13;;
1799;SDS011;919;48.274;12.292;2023-02-28T15:31:34;13.10;;;8.73;;
1799;SDS011;919;48.274;12.292;2023-02-28T15:34:06;10.47;;;8.03;;
1799;SDS011;919;48.274;12.292;2023-02-28T15:36:42;9.00;;;7.10;;
1799;SDS011;919;48.274;12.292;2023-02-28T15:39:18;10.63;;;8.03;;
1799;SDS011;919;48.274;12.292;2023-02-28T15:41:46;9.47;;;7.30;;
1799;SDS011;919;48.274;12.292;2023-02-28T15:47:00;10.80;;;8.27;;
1799;SDS011;919;48.274;12.292;2023-02-28T15:49:29;11.57;;;8.27;;
1799;SDS011;919;48.274;12.292;2023-02-28T15:52:04;10.90;;;8.50;;
1799;SDS011;919;48.274;12.292;2023-02-28T15:54:32;13.50;;;8.10;;
1799;SDS011;919;48.274;12.292;2023-02-28T15:57:01;11.20;;;8.30;;
1799;SDS011;919;48.274;12.292;2023-02-28T15:59:31;8.77;;;7.23;;
1799;SDS011;919;48.274;12.292;2023-02-28T16:02:02;12.37;;;8.67;;
1799;SDS011;919;48.274;12.292;2023-02-28T16:04:54;14.90;;;9.07;;
1799;SDS011;919;48.274;12.292;2023-02-28T16:07:24;13.97;;;8.50;;
1799;SDS011;919;48.274;12.292;2023-02-28T16:09:51;15.03;;;9.13;;
1799;SDS011;919;48.274;12.292;2023-02-28T16:12:18;15.03;;;8.30;;
1799;SDS011;919;48.274;12.292;2023-02-28T16:14:46;13.10;;;9.20;;
1799;SDS011;919;48.274;12.292;2023-02-28T16:17:16;11.17;;;8.77;;